createdAt,value
2022-11-25T00:00:20.927Z,3.95
2022-11-25T00:05:22.312Z,3.25
2022-11-25T00:10:23.685Z,3.22
2022-11-25T00:15:25.064Z,3.38
2022-11-25T00:20:26.437Z,3.08
2022-11-25T00:25:27.835Z,2.80
2022-11-25T00:30:29.361Z,2.70
2022-11-25T00:35:30.729Z,2.90
2022-11-25T00:40:32.100Z,2.47
2022-11-25T00:45:33.569Z,2.83
2022-11-25T00:50:35.083Z,2.70
2022-11-25T00:55:56.475Z,3.20
2022-11-25T01:01:01.763Z,3.00
2022-11-25T01:06:04.231Z,3.10
2022-11-25T01:11:07.931Z,3.20
2022-11-25T01:16:11.746Z,3.13
2022-11-25T01:21:17.463Z,2.95
2022-11-25T01:26:20.444Z,3.13
2022-11-25T01:31:22.560Z,3.20
2022-11-25T01:36:23.980Z,3.20
2022-11-25T01:41:29.514Z,3.17
2022-11-25T01:46:35.283Z,3.22
2022-11-25T01:51:50.856Z,3.00
2022-11-25T01:56:56.135Z,3.45
2022-11-25T02:01:57.517Z,3.80
2022-11-25T02:07:02.011Z,3.17
2022-11-25T02:12:03.481Z,3.25
2022-11-25T02:17:04.866Z,3.03
2022-11-25T02:22:06.720Z,3.72
2022-11-25T02:27:08.103Z,3.05
2022-11-25T02:32:09.495Z,3.00
2022-11-25T02:37:10.911Z,3.42
2022-11-25T02:42:12.286Z,3.15
2022-11-25T02:47:13.659Z,3.10
2022-11-25T02:52:15.144Z,2.92
2022-11-25T02:57:16.536Z,3.20
2022-11-25T03:02:17.983Z,3.28
2022-11-25T03:07:19.430Z,2.53
2022-11-25T03:12:21.011Z,2.92
2022-11-25T03:17:22.404Z,2.80
2022-11-25T03:22:23.779Z,2.63
2022-11-25T03:27:27.994Z,2.70
2022-11-25T03:32:31.699Z,2.42
2022-11-25T03:37:33.063Z,2.88
2022-11-25T03:42:34.455Z,2.80
2022-11-25T03:47:35.827Z,3.00
2022-11-25T03:52:37.232Z,2.72
2022-11-25T03:57:38.620Z,2.80
2022-11-25T04:02:40.042Z,3.10
2022-11-25T04:07:41.500Z,2.55
2022-11-25T04:12:49.057Z,2.65
2022-11-25T04:17:50.434Z,2.63
2022-11-25T04:22:51.803Z,2.63
2022-11-25T04:27:53.194Z,2.53
2022-11-25T04:32:54.575Z,3.00
2022-11-25T04:37:55.932Z,3.05
2022-11-25T04:43:03.461Z,2.60
2022-11-25T04:48:07.534Z,2.55
2022-11-25T04:53:08.935Z,2.60
2022-11-25T04:58:11.161Z,2.90
2022-11-25T05:03:12.520Z,3.08
2022-11-25T05:08:13.880Z,3.00
2022-11-25T05:13:15.250Z,2.90
2022-11-25T05:18:16.640Z,2.70
2022-11-25T05:23:18.013Z,2.75
2022-11-25T05:28:19.371Z,2.50
2022-11-25T05:33:20.904Z,2.78
2022-11-25T05:38:22.268Z,2.83
2022-11-25T05:43:23.630Z,3.30
2022-11-25T05:48:25.196Z,3.05
2022-11-25T05:53:26.736Z,3.33
2022-11-25T05:58:28.615Z,2.85
2022-11-25T06:03:30.198Z,2.63
2022-11-25T06:08:31.600Z,2.97
2022-11-25T06:13:34.155Z,2.47
2022-11-25T06:18:36.395Z,2.50
2022-11-25T06:23:37.969Z,2.58
2022-11-25T06:28:39.383Z,3.55
2022-11-25T06:33:40.924Z,4.55
2022-11-25T06:38:45.755Z,4.22
2022-11-25T06:43:47.116Z,4.28
2022-11-25T06:48:48.500Z,2.97
2022-11-25T06:53:49.895Z,3.63
2022-11-25T06:58:51.686Z,3.65
2022-11-25T07:03:58.775Z,3.78
2022-11-25T07:09:00.187Z,3.53
2022-11-25T07:14:03.026Z,3.22
2022-11-25T07:19:04.392Z,3.75
2022-11-25T07:24:06.889Z,3.35
2022-11-25T07:29:29.318Z,3.95
2022-11-25T07:34:31.749Z,4.18
2022-11-25T07:39:33.140Z,4.07
2022-11-25T07:44:34.545Z,3.80
2022-11-25T07:49:36.146Z,4.05
2022-11-25T07:54:37.765Z,4.20
2022-11-25T07:59:41.210Z,4.68
2022-11-25T08:04:42.575Z,5.28
2022-11-25T08:09:43.951Z,5.68
2022-11-25T08:14:48.353Z,6.03
2022-11-25T08:19:49.835Z,6.68
2022-11-25T08:24:51.204Z,4.68
2022-11-25T08:29:52.567Z,4.78
2022-11-25T08:34:53.931Z,4.97
2022-11-25T08:39:56.026Z,6.10
2022-11-25T08:44:57.707Z,5.25
2022-11-25T08:49:59.063Z,4.47
2022-11-25T08:55:01.001Z,5.15
2022-11-25T09:00:03.493Z,4.85
2022-11-25T09:05:05.120Z,5.82
2022-11-25T09:10:08.324Z,5.13
2022-11-25T09:15:10.416Z,4.38
2022-11-25T09:20:12.114Z,4.57
2022-11-25T09:25:13.495Z,4.03
2022-11-25T09:30:14.998Z,4.95
2022-11-25T09:35:16.839Z,4.03
2022-11-25T09:40:35.212Z,3.53
2022-11-25T09:46:15.285Z,3.40
2022-11-25T09:51:24.838Z,3.90
2022-11-25T09:56:33.568Z,3.90
2022-11-25T10:01:38.567Z,4.00
2022-11-25T10:06:55.490Z,3.37
2022-11-25T10:12:00.446Z,3.53
2022-11-25T10:17:20.487Z,3.40
2022-11-25T10:22:26.675Z,3.53
2022-11-25T10:27:46.067Z,2.92
2022-11-25T10:33:11.597Z,3.03
2022-11-25T10:38:18.934Z,3.45
2022-11-25T10:43:20.807Z,3.08
2022-11-25T10:48:40.000Z,3.25
2022-11-25T10:54:10.677Z,3.10
2022-11-25T10:59:23.138Z,3.03
2022-11-25T11:04:24.520Z,2.90
2022-11-25T11:09:35.715Z,3.47
2022-11-25T11:14:37.397Z,3.30
2022-11-25T11:19:38.955Z,3.00
2022-11-25T11:24:42.357Z,2.75
2022-11-25T11:29:43.722Z,2.60
2022-11-25T11:34:50.745Z,2.85
2022-11-25T11:40:38.427Z,3.35
2022-11-25T11:45:49.030Z,3.38
2022-11-25T11:50:51.072Z,3.38
2022-11-25T11:56:35.940Z,3.72
2022-11-25T12:02:00.361Z,3.97
2022-11-25T12:07:06.161Z,3.70
2022-11-25T12:12:09.271Z,3.15
2022-11-25T12:17:17.788Z,3.13
2022-11-25T12:22:23.555Z,3.30
2022-11-25T12:27:34.961Z,3.88
2022-11-25T12:32:59.897Z,2.95
2022-11-25T12:38:04.208Z,3.43
2022-11-25T12:43:28.664Z,3.25
2022-11-25T12:48:30.043Z,2.88
2022-11-25T12:53:35.633Z,2.70
2022-11-25T12:58:53.330Z,2.78
2022-11-25T13:04:23.343Z,3.28
2022-11-25T13:09:46.556Z,3.08
2022-11-25T13:15:19.240Z,3.13
2022-11-25T13:20:23.746Z,2.83
2022-11-25T13:25:25.788Z,2.58
2022-11-25T13:30:33.324Z,3.00
2022-11-25T13:35:35.572Z,2.97
2022-11-25T13:40:38.392Z,2.58
2022-11-25T13:45:42.878Z,4.53
2022-11-25T13:51:11.941Z,4.63
2022-11-25T13:56:21.929Z,4.65
2022-11-25T14:01:29.510Z,5.28
2022-11-25T14:06:39.929Z,4.72
2022-11-25T14:11:59.855Z,3.95
2022-11-25T14:17:04.526Z,3.80
2022-11-25T14:22:32.859Z,2.90
2022-11-25T14:27:34.288Z,3.45
2022-11-25T14:32:57.513Z,3.95
2022-11-25T14:38:12.764Z,3.33
2022-11-25T14:43:22.552Z,3.25
2022-11-25T14:48:25.841Z,3.30
2022-11-25T14:53:27.812Z,2.97
2022-11-25T14:58:29.283Z,3.20
2022-11-25T15:03:30.728Z,3.67
2022-11-25T15:08:58.157Z,3.08
2022-11-25T15:14:01.823Z,3.42
2022-11-25T15:19:04.811Z,3.13
2022-11-25T15:24:06.423Z,3.58
2022-11-25T15:29:12.002Z,4.18
2022-11-25T15:34:13.989Z,3.63
2022-11-25T15:39:21.680Z,4.00
2022-11-25T15:44:27.572Z,3.60
2022-11-25T15:54:32.969Z,3.83
2022-11-25T15:59:55.434Z,3.92
2022-11-25T16:05:16.489Z,4.13
2022-11-25T16:10:56.402Z,4.13
2022-11-25T16:16:01.782Z,3.80
2022-11-25T16:21:05.035Z,4.18
2022-11-25T16:26:12.315Z,4.70
2022-11-25T16:31:15.495Z,4.45
2022-11-25T16:36:16.943Z,4.90
2022-11-25T16:41:24.189Z,4.30
2022-11-25T16:46:25.760Z,4.40
2022-11-25T16:51:27.294Z,4.90
2022-11-25T16:56:28.663Z,4.75
2022-11-25T17:01:30.154Z,4.47
2022-11-25T17:06:31.715Z,4.50
2022-11-25T17:11:35.363Z,5.40
2022-11-25T17:16:36.754Z,4.93
2022-11-25T17:21:38.152Z,4.38
2022-11-25T17:26:40.281Z,4.88
2022-11-25T17:31:41.723Z,5.05
2022-11-25T17:36:43.688Z,4.78
2022-11-25T17:41:46.288Z,4.78
2022-11-25T17:46:47.673Z,4.60
2022-11-25T17:51:49.096Z,4.65
2022-11-25T17:56:52.582Z,4.28
2022-11-25T18:01:55.899Z,4.97
2022-11-25T18:06:57.541Z,5.07
2022-11-25T18:11:59.523Z,4.57
2022-11-25T18:17:02.021Z,4.82
2022-11-25T18:22:17.958Z,4.78
2022-11-25T18:32:23.321Z,4.72
2022-11-25T18:37:25.123Z,4.93
2022-11-25T18:42:26.941Z,4.55
2022-11-25T18:47:28.360Z,5.07
2022-11-25T18:52:29.762Z,5.15
2022-11-25T18:57:31.139Z,5.32
2022-11-25T19:02:32.600Z,4.28
2022-11-25T19:07:34.074Z,4.95
2022-11-25T19:12:35.524Z,4.80
2022-11-25T19:17:37.031Z,5.70
2022-11-25T19:22:38.402Z,4.65
2022-11-25T19:27:42.554Z,4.80
2022-11-25T19:32:44.897Z,5.20
2022-11-25T19:37:46.271Z,4.70
2022-11-25T19:42:48.451Z,4.22
2022-11-25T19:47:50.413Z,4.90
2022-11-25T19:52:51.844Z,4.88
2022-11-25T19:57:54.361Z,5.13
2022-11-25T20:02:56.148Z,5.72
2022-11-25T20:07:57.615Z,4.88
2022-11-25T20:12:59.132Z,4.70
2022-11-25T20:18:00.634Z,4.28
2022-11-25T20:23:16.559Z,4.50
2022-11-25T20:28:19.657Z,4.10
2022-11-25T20:33:24.252Z,3.60
2022-11-25T20:38:27.548Z,3.55
2022-11-25T20:43:33.310Z,3.65
2022-11-25T20:48:37.276Z,3.15
2022-11-25T20:53:38.684Z,2.90
2022-11-25T20:58:40.063Z,2.92
2022-11-25T21:03:42.497Z,2.90
2022-11-25T21:08:45.244Z,2.60
2022-11-25T21:13:46.817Z,2.72
2022-11-25T21:18:48.207Z,2.60
2022-11-25T21:23:49.632Z,2.70
2022-11-25T21:28:51.844Z,2.20
2022-11-25T21:33:55.939Z,2.28
2022-11-25T21:39:02.055Z,2.30
2022-11-25T21:44:04.339Z,2.60
2022-11-25T21:49:10.492Z,2.20
2022-11-25T21:54:11.868Z,2.05
2022-11-25T21:59:17.236Z,2.05
2022-11-25T22:04:20.360Z,1.95
2022-11-25T22:09:22.084Z,2.40
2022-11-25T22:14:29.559Z,2.17
2022-11-25T22:19:30.928Z,2.10
2022-11-25T22:24:32.312Z,1.73
2022-11-25T22:29:34.495Z,2.10
2022-11-25T22:34:36.125Z,2.17
2022-11-25T22:39:37.716Z,2.10
2022-11-25T22:44:46.639Z,2.00
2022-11-25T22:49:48.231Z,2.13
2022-11-25T22:54:49.805Z,2.33
2022-11-25T22:59:51.182Z,2.30
2022-11-25T23:04:53.520Z,1.98
2022-11-25T23:09:56.482Z,2.00
2022-11-25T23:14:57.907Z,2.00
2022-11-25T23:19:59.267Z,1.67
2022-11-25T23:25:00.647Z,1.88
2022-11-25T23:30:02.040Z,1.58
2022-11-25T23:35:03.488Z,1.70
2022-11-25T23:40:05.332Z,1.55
2022-11-25T23:45:07.411Z,1.60
2022-11-25T23:50:23.778Z,1.83
2022-11-25T23:55:27.476Z,1.50
